Terminal Aerodrome Forecast
Issued by NWS

Home | Current Version | Previous Version | Text Only | Print | Product List | Glossary On
Versions: 1 2 3 4 5 6 7 8 9 10 11 12 13 14 15 16 17 18 19 20 21 22 23 24 25 26 27 28 29 30 31 32 33 34
000
FTUS43 KGRR 261121
TAFJXN
TAF
KJXN 261121Z 2612/2712 32014G21KT P6SM VCSH BKN060 OVC120
     FM261400 32012G20KT P6SM VCSH BKN035
     FM261800 31020G30KT P6SM FEW120 BKN250
     FM270000 31015G25KT P6SM SKC
     FM270400 31010KT P6SM SKC=

USA.gov is the U.S. government's official web portal to all federal, state and local government web resources and services.